ENHN weather

Elverum Starmoen Airport
Hedmark, Norway

Public forecast

Using degrees Celsius for public forecast. Weather courtesy of forecast.io.

METAR (pilot weather report)

Closest report is Oslo Gardermoen Airport, 44.5 nm (82.5 km) SSW. Retrieved 2019/03/25 15:50 UTC (14 minutes ago):

ENGM 251550Z VRB06KT CAVOK 05/M09 Q1014 NOSIG

TAF (pilot weather forecast)

Closest forecast is Oslo Gardermoen Airport, 44.5 nm (82.5 km) SSW. Retrieved 2019/03/25 12:57 UTC (3 hours ago):

TAF ENGM 251100Z 2512/2612 33008KT CAVOK